My Meet Scores
Emilia Belsha, Aspire Gymnastics Academy - MyMeetScores.com
Top100 | Top Teams | Upcoming Meets | Completed Meets | Latest | Add Scores | Help| Support | Bookmark and Share

Emilia Belsha, Aspire Gymnastics Academy
Personal Bests
LevelVault BarsBeamFloorAA
39.3259.550 9.5259.35037.075
48.7008.500 8.6008.50033.250
Meet Scores
Date Meet Team Session Level Division Vault Bars Beam Floor AA
2019-03-08 Lucky Invite Aspire Gymnastics Academy A09 4 Jr B 8.150 13T 8.500 12 8.250 16 8.350 14 33.250 13
2019-02-23 Kinetic Classic 2019 Aspire Gymnastics Academy 1 4 Older 8.050 548T 8.075 528T 8.450 487T 8.050 556T 32.625 553T
2019-02-15 Big ClassicBIG CLASSIC Aspire Gymnastics Academy 5A 4 Child D 8.325 11 8.100 13 8.600 11 8.175 12 33.200 12T
2018-12-07 St. Nick Invite 2018 Aspire Gymnastics Academy 5A 4 SrB 8.400 14 8.250 14 7.825 17 8.500 14T 32.975 16
2018-11-17 Paul Hamm Thanksgiving Class WOMENS Aspire Gymnastics Academy 6 4 Middle 8.700 13T 8.300 24 8.050 29 8.200 29 33.250 27
2018-05-03 Illinois USA Gymnastics Level 3 State Championships Aspire Gymnastics Academy 5 3 Sr A 9.325 24T 9.400 9 9.100 13T 9.200 19T 37.025 15T
2018-02-16 Big Classic Aspire Gymnastics Academy 1B 3 Child C 9.025 5 9.125 4 9.275 4 9.350 1 36.775 3
2018-01-26 2018 UGA Classic Aspire Gymnastics Academy A8 3 Sr A 9.050 8T 9.300 5 9.525 5 9.200 7 37.075 5
2018-01-19 2018 Bravo Classic Aspire Gymnastics Academy 7B 3 Sr 8.800 15T 9.375 5T 9.375 2T 9.225 3T 36.775 5
2017-12-15 2017 Aspire Classic Aspire Gymnastics Academy 11A 3 Older 9.150 19 9.550 6T 8.975 14 9.050 20 36.725 17
2017-12-08 St. Nick Invite Aspire Gymnastics Academy 5A 3 SrA 9.100 7T 9.050 6 9.175 4 8.950 3 36.275 4
2017-11-16 Paul Hamm Thanksgiving Classic - Women Aspire Gymnastics Academy 1 3 Older 9.000 14T 9.250 7T 9.075 3 9.050 5 36.375 5
2017-03-30 2017 Illinois Level 3 & 5 State Aspire Gymnastics Academy All 3 Jr A 9.050 23 8.150 25 8.525 21 8.225 26 33.950 26
2017-02-24 Kinetic Classic Aspire Gymnastics Academy 4,5,6,7 3 All Ages 8.475 111 8.525 77T 7.825 109 7.875 111 32.700 110T
2017-02-18 2017 Great Western Invitational Women's Aspire Gymnastics Academy 1 3 Pony 8.775 15T 8.750 8 8.500 11 8.225 12 34.250 12
2017-01-27 2017 UGA Invitational Aspire Gymnastics Academy B7 3 Sr A 8.450 15 8.500 13T 8.250 14 7.650 15 32.850 15
2017-01-20 2017 Bravo Classic Aspire Gymnastics Academy 11B 3 8yrs 8.900 17T 8.000 23 8.550 17T 6.550 23 32.000 24
2016-12-16 2016 Aspire Classic Aspire Gymnastics Academy 11 3 Middle 8.500 17 8.000 17 7.175 17 7.750 17 31.425 17
2016-12-09 St. Nick Invite Aspire Gymnastics Academy 5 3 All 8.625 83 7.825 78 8.175 82 7.450 88 32.075 84
2016-11-19 Paul Hamm Thanksgiving Classic - 2016 Girls Aspire Gymnastics Academy 5 3 9+yrs 8.100 25T 7.100 28 8.275 22 7.300 28 30.775 28
Get your scores on
a t-shirt, pin, or hoodie

www.lazysuits.com